METAR AND TAF INFORMATION
METAR FOR UIII
ADDS - METARS form results

(2254 UTC 08 August 2020)
Data provider http://aviationweather.gov/metar/data/
 
METAR text: UIII 082230Z 30005MPS 9999 SCT009CB 15/15 Q1003 R30/290150 NOSIG RMK QBB270 QFE708/0944
Conditions at: UIII (IRKUTSK , RU) observed 2230 UTC 08 August 2020
Temperature: 15.0°C (59°F)
Dewpoint: 15.0°C (59°F) [RH = 100%]
Pressure (altimeter): 29.62 inches Hg (1003.0 mb)
Winds: from the WNW (300 degrees) at 12 MPH (10 knots; 5.1 m/s)
Visibility: 6 or more miles (10+ km)
Ceiling: at least 12,000 feet AGL
Clouds: scattered clouds at 900 feet AGL
Weather: no significant weather observed at this time

METAR text: UIII 082200Z 30004MPS 270V330 9999 SCT009CB 15/15 Q1003 R30/290150 NOSIG RMK QBB270 QFE708/0944
Conditions at: UIII (IRKUTSK , RU) observed 2200 UTC 08 August 2020
Temperature: 15.0°C (59°F)
Dewpoint: 15.0°C (59°F) [RH = 100%]
Pressure (altimeter): 29.62 inches Hg (1003.0 mb)
Winds: from the WNW (300 degrees) at 9 MPH (8 knots; 4.1 m/s)
Visibility: 6 or more miles (10+ km)
Ceiling: at least 12,000 feet AGL
Clouds: scattered clouds at 900 feet AGL
Weather: no significant weather observed at this time

Forecast for: UIII (IRKUTSK , RU)
Text: TAF UIII 082000Z 0821/0921 32008G13MPS 9999 BKN020CB
Forecast period: 2100 UTC 08 August 2020 to 2100 UTC 09 August 2020
Forecast type: FROM: standard forecast or significant change
Winds: from the NW (320 degrees) at 18 MPH (16 knots; 8.2 m/s)
gusting to 29 MPH (25 knots; 12.9 m/s)
Visibility: 6 or more miles (10+ km)
Ceiling: 2000 feet AGL
Clouds: broken clouds at 2000 feet AGL
Weather: no significant weather forecast for this period
Text: TEMPO 0821/0903 29003G08MPS -SHRA OVC007CB
Forecast period: 2100 UTC 08 August 2020 to 0300 UTC 09 August 2020
Forecast type: TEMPORARY: The following changes expected for less than half the time period
Winds: from the WNW (290 degrees) at 7 MPH (6 knots; 3.1 m/s)
gusting to 18 MPH (16 knots; 8.2 m/s)
Visibility: missing
Ceiling: 700 feet AGL
Clouds: overcast cloud deck at 700 feet AGL
Weather: -SHRA  (light rain showers)
Text: TEMPO 0903/0915 -TSRA
Forecast period: 0300 to 1500 UTC 09 August 2020
Forecast type: TEMPORARY: The following changes expected for less than half the time period
Visibility: missing
Ceiling: unknown
Clouds: missing
Weather: -TSRA  (light rain associated with thunderstorm(s))

 AIRPORT MAP

 RUNWAY INFORMATION

 AIRPORT FREQUENCIES
Type APP Name APP Frequency 125.2 MHZ
Type ATIS Name ATIS Frequency 124.85 MHZ
Type GND Name TAXIING Frequency 121.7 MHZ
Type MISC Name TRANSIT Frequency 131.7 MHZ
Type PMSV Name VOLMET Frequency 125.475 MHZ
Type RDR Name RADAR Frequency 119.3 MHZ
Type TWR Name TWR Frequency 118.1 MHZ

 AIRPORT NEAR NAVIGATION AIDS
Type NDB Name Irkutsk Frequency 514 KHZ
Type NDB Name Irkutsk Frequency 514 KHZ
Type VOR-DME Name Irkutsk Frequency 112300 KHZ



2018 Air Astana Virtual Airline